sensor_id;sensor_type;location;lat;lon;timestamp;P1;durP1;ratioP1;P2;durP2;ratioP2
54265;SDS011;40836;39.770;2.714;2022-10-16T00:00:56;7.35;;;2.78;;
54265;SDS011;40836;39.770;2.714;2022-10-16T00:03:21;5.93;;;2.38;;
54265;SDS011;40836;39.770;2.714;2022-10-16T00:05:47;5.53;;;2.63;;
54265;SDS011;40836;39.770;2.714;2022-10-16T00:08:13;6.80;;;2.40;;
54265;SDS011;40836;39.770;2.714;2022-10-16T00:10:38;4.82;;;2.40;;
54265;SDS011;40836;39.770;2.714;2022-10-16T00:13:05;4.18;;;2.10;;
54265;SDS011;40836;39.770;2.714;2022-10-16T00:15:35;3.65;;;2.15;;
54265;SDS011;40836;39.770;2.714;2022-10-16T00:18:02;5.32;;;2.03;;
54265;SDS011;40836;39.770;2.714;2022-10-16T00:20:29;3.38;;;2.00;;
54265;SDS011;40836;39.770;2.714;2022-10-16T00:22:56;4.65;;;2.10;;
54265;SDS011;40836;39.770;2.714;2022-10-16T00:25:22;4.53;;;2.60;;
54265;SDS011;40836;39.770;2.714;2022-10-16T00:27:48;4.55;;;2.50;;
54265;SDS011;40836;39.770;2.714;2022-10-16T00:30:13;8.20;;;2.60;;
54265;SDS011;40836;39.770;2.714;2022-10-16T00:32:39;3.85;;;2.63;;
54265;SDS011;40836;39.770;2.714;2022-10-16T00:35:04;5.18;;;2.47;;
54265;SDS011;40836;39.770;2.714;2022-10-16T00:37:30;4.40;;;2.70;;
54265;SDS011;40836;39.770;2.714;2022-10-16T00:39:55;12.30;;;2.72;;
54265;SDS011;40836;39.770;2.714;2022-10-16T00:42:21;8.38;;;2.40;;
54265;SDS011;40836;39.770;2.714;2022-10-16T00:44:54;4.43;;;2.30;;
54265;SDS011;40836;39.770;2.714;2022-10-16T00:49:50;4.25;;;2.10;;
54265;SDS011;40836;39.770;2.714;2022-10-16T00:52:18;4.65;;;1.90;;
54265;SDS011;40836;39.770;2.714;2022-10-16T00:54:44;6.80;;;2.33;;
54265;SDS011;40836;39.770;2.714;2022-10-16T00:57:12;4.78;;;2.20;;
54265;SDS011;40836;39.770;2.714;2022-10-16T00:59:39;5.25;;;2.13;;
54265;SDS011;40836;39.770;2.714;2022-10-16T01:02:07;3.33;;;2.00;;
54265;SDS011;40836;39.770;2.714;2022-10-16T01:04:48;5.05;;;2.13;;
54265;SDS011;40836;39.770;2.714;2022-10-16T01:15:21;4.70;;;2.03;;
54265;SDS011;40836;39.770;2.714;2022-10-16T01:20:33;4.78;;;2.10;;
54265;SDS011;40836;39.770;2.714;2022-10-16T01:31:41;3.35;;;1.70;;
54265;SDS011;40836;39.770;2.714;2022-10-16T01:34:15;4.80;;;2.00;;
54265;SDS011;40836;39.770;2.714;2022-10-16T01:36:49;5.32;;;2.00;;
54265;SDS011;40836;39.770;2.714;2022-10-16T01:39:21;4.75;;;2.13;;
54265;SDS011;40836;39.770;2.714;2022-10-16T01:41:54;4.05;;;1.73;;
54265;SDS011;40836;39.770;2.714;2022-10-16T01:44:35;5.32;;;1.80;;
54265;SDS011;40836;39.770;2.714;2022-10-16T01:47:02;4.57;;;1.90;;
54265;SDS011;40836;39.770;2.714;2022-10-16T01:49:30;2.38;;;1.80;;
54265;SDS011;40836;39.770;2.714;2022-10-16T01:51:59;3.83;;;2.03;;
54265;SDS011;40836;39.770;2.714;2022-10-16T01:54:30;7.30;;;2.00;;
54265;SDS011;40836;39.770;2.714;2022-10-16T01:56:59;8.88;;;1.90;;
54265;SDS011;40836;39.770;2.714;2022-10-16T01:59:26;7.00;;;1.90;;
54265;SDS011;40836;39.770;2.714;2022-10-16T02:01:56;7.13;;;2.08;;
54265;SDS011;40836;39.770;2.714;2022-10-16T02:04:29;8.05;;;2.00;;
54265;SDS011;40836;39.770;2.714;2022-10-16T02:07:16;5.40;;;1.90;;
54265;SDS011;40836;39.770;2.714;2022-10-16T02:09:42;7.28;;;2.08;;
54265;SDS011;40836;39.770;2.714;2022-10-16T02:12:10;4.35;;;1.90;;
54265;SDS011;40836;39.770;2.714;2022-10-16T02:14:40;6.53;;;2.20;;
54265;SDS011;40836;39.770;2.714;2022-10-16T02:17:14;5.03;;;2.22;;
54265;SDS011;40836;39.770;2.714;2022-10-16T02:19:40;2.97;;;1.90;;
54265;SDS011;40836;39.770;2.714;2022-10-16T02:22:08;5.10;;;2.15;;
54265;SDS011;40836;39.770;2.714;2022-10-16T02:24:50;5.65;;;2.20;;
54265;SDS011;40836;39.770;2.714;2022-10-16T02:27:27;5.30;;;2.00;;
54265;SDS011;40836;39.770;2.714;2022-10-16T02:29:59;6.35;;;2.00;;
54265;SDS011;40836;39.770;2.714;2022-10-16T02:32:33;5.65;;;2.20;;
54265;SDS011;40836;39.770;2.714;2022-10-16T02:35:01;5.45;;;2.15;;
54265;SDS011;40836;39.770;2.714;2022-10-16T02:37:27;6.88;;;1.80;;
54265;SDS011;40836;39.770;2.714;2022-10-16T02:39:54;8.32;;;2.03;;
54265;SDS011;40836;39.770;2.714;2022-10-16T02:42:27;4.22;;;1.90;;
54265;SDS011;40836;39.770;2.714;2022-10-16T02:44:53;6.38;;;2.40;;
54265;SDS011;40836;39.770;2.714;2022-10-16T02:47:19;3.75;;;2.10;;
54265;SDS011;40836;39.770;2.714;2022-10-16T02:49:44;5.53;;;2.30;;
54265;SDS011;40836;39.770;2.714;2022-10-16T02:52:09;6.57;;;2.50;;
54265;SDS011;40836;39.770;2.714;2022-10-16T02:54:35;6.78;;;2.10;;
54265;SDS011;40836;39.770;2.714;2022-10-16T02:57:00;5.65;;;2.28;;
54265;SDS011;40836;39.770;2.714;2022-10-16T02:59:26;5.18;;;2.03;;
54265;SDS011;40836;39.770;2.714;2022-10-16T03:01:51;5.20;;;2.10;;
54265;SDS011;40836;39.770;2.714;2022-10-16T03:04:17;5.95;;;2.08;;
54265;SDS011;40836;39.770;2.714;2022-10-16T03:06:42;7.57;;;2.20;;
54265;SDS011;40836;39.770;2.714;2022-10-16T03:09:07;7.70;;;2.28;;
54265;SDS011;40836;39.770;2.714;2022-10-16T03:11:33;5.95;;;1.85;;
54265;SDS011;40836;39.770;2.714;2022-10-16T03:13:58;6.93;;;1.88;;
54265;SDS011;40836;39.770;2.714;2022-10-16T03:16:24;6.18;;;1.70;;
54265;SDS011;40836;39.770;2.714;2022-10-16T03:18:49;6.88;;;1.80;;
54265;SDS011;40836;39.770;2.714;2022-10-16T03:21:15;5.55;;;2.15;;
54265;SDS011;40836;39.770;2.714;2022-10-16T03:23:41;4.97;;;1.67;;
54265;SDS011;40836;39.770;2.714;2022-10-16T03:26:07;7.90;;;1.80;;
54265;SDS011;40836;39.770;2.714;2022-10-16T03:28:32;6.30;;;2.20;;
54265;SDS011;40836;39.770;2.714;2022-10-16T03:30:58;8.07;;;1.80;;
54265;SDS011;40836;39.770;2.714;2022-10-16T03:33:23;5.63;;;1.70;;
54265;SDS011;40836;39.770;2.714;2022-10-16T03:35:52;4.95;;;1.50;;
54265;SDS011;40836;39.770;2.714;2022-10-16T03:38:19;5.85;;;1.70;;
54265;SDS011;40836;39.770;2.714;2022-10-16T03:40:45;3.15;;;1.60;;
54265;SDS011;40836;39.770;2.714;2022-10-16T03:43:11;2.65;;;1.10;;
54265;SDS011;40836;39.770;2.714;2022-10-16T03:45:36;6.20;;;1.52;;
54265;SDS011;40836;39.770;2.714;2022-10-16T03:48:02;2.75;;;1.42;;
54265;SDS011;40836;39.770;2.714;2022-10-16T03:50:28;2.75;;;1.40;;
54265;SDS011;40836;39.770;2.714;2022-10-16T03:52:54;2.03;;;1.40;;
54265;SDS011;40836;39.770;2.714;2022-10-16T03:55:19;5.75;;;1.60;;
54265;SDS011;40836;39.770;2.714;2022-10-16T03:57:45;3.15;;;1.50;;
54265;SDS011;40836;39.770;2.714;2022-10-16T04:00:10;3.15;;;1.50;;
54265;SDS011;40836;39.770;2.714;2022-10-16T04:02:37;9.82;;;1.73;;
54265;SDS011;40836;39.770;2.714;2022-10-16T04:05:02;4.07;;;1.70;;
54265;SDS011;40836;39.770;2.714;2022-10-16T04:07:28;3.67;;;1.63;;
54265;SDS011;40836;39.770;2.714;2022-10-16T04:09:54;4.22;;;1.73;;
54265;SDS011;40836;39.770;2.714;2022-10-16T04:12:19;3.08;;;1.80;;
54265;SDS011;40836;39.770;2.714;2022-10-16T04:14:45;6.00;;;2.00;;
54265;SDS011;40836;39.770;2.714;2022-10-16T04:17:10;6.55;;;1.90;;
54265;SDS011;40836;39.770;2.714;2022-10-16T04:19:36;4.55;;;1.80;;
54265;SDS011;40836;39.770;2.714;2022-10-16T04:22:02;5.50;;;2.00;;
54265;SDS011;40836;39.770;2.714;2022-10-16T04:24:27;7.38;;;2.10;;
54265;SDS011;40836;39.770;2.714;2022-10-16T04:26:53;4.80;;;1.83;;
54265;SDS011;40836;39.770;2.714;2022-10-16T04:29:18;7.03;;;2.38;;
54265;SDS011;40836;39.770;2.714;2022-10-16T04:31:44;5.70;;;2.20;;
54265;SDS011;40836;39.770;2.714;2022-10-16T04:34:09;5.57;;;2.13;;
54265;SDS011;40836;39.770;2.714;2022-10-16T04:36:35;6.75;;;2.13;;
54265;SDS011;40836;39.770;2.714;2022-10-16T04:39:00;4.53;;;2.10;;
54265;SDS011;40836;39.770;2.714;2022-10-16T04:41:25;5.95;;;1.92;;
54265;SDS011;40836;39.770;2.714;2022-10-16T04:43:51;9.55;;;2.22;;
54265;SDS011;40836;39.770;2.714;2022-10-16T04:46:16;6.72;;;2.30;;
54265;SDS011;40836;39.770;2.714;2022-10-16T04:48:42;3.63;;;1.90;;
54265;SDS011;40836;39.770;2.714;2022-10-16T04:51:07;5.90;;;2.10;;
54265;SDS011;40836;39.770;2.714;2022-10-16T04:53:33;4.60;;;2.20;;
54265;SDS011;40836;39.770;2.714;2022-10-16T04:55:59;5.65;;;2.10;;
54265;SDS011;40836;39.770;2.714;2022-10-16T04:58:24;5.10;;;2.30;;
54265;SDS011;40836;39.770;2.714;2022-10-16T05:00:50;5.82;;;2.13;;
54265;SDS011;40836;39.770;2.714;2022-10-16T05:03:15;7.53;;;1.95;;
54265;SDS011;40836;39.770;2.714;2022-10-16T05:05:44;8.23;;;2.10;;
54265;SDS011;40836;39.770;2.714;2022-10-16T05:08:14;4.30;;;1.88;;
54265;SDS011;40836;39.770;2.714;2022-10-16T05:10:41;7.03;;;2.15;;
54265;SDS011;40836;39.770;2.714;2022-10-16T05:13:07;6.70;;;2.25;;
54265;SDS011;40836;39.770;2.714;2022-10-16T05:15:33;3.63;;;1.95;;
54265;SDS011;40836;39.770;2.714;2022-10-16T05:17:59;7.03;;;2.15;;
54265;SDS011;40836;39.770;2.714;2022-10-16T05:20:24;6.35;;;1.92;;
54265;SDS011;40836;39.770;2.714;2022-10-16T05:22:50;7.90;;;2.20;;
54265;SDS011;40836;39.770;2.714;2022-10-16T05:25:15;7.57;;;2.17;;
54265;SDS011;40836;39.770;2.714;2022-10-16T05:27:41;8.07;;;2.30;;
54265;SDS011;40836;39.770;2.714;2022-10-16T05:30:06;6.25;;;2.58;;
54265;SDS011;40836;39.770;2.714;2022-10-16T05:32:32;8.68;;;2.60;;
54265;SDS011;40836;39.770;2.714;2022-10-16T05:34:58;4.78;;;2.33;;
54265;SDS011;40836;39.770;2.714;2022-10-16T05:37:25;5.68;;;2.20;;
54265;SDS011;40836;39.770;2.714;2022-10-16T05:39:52;6.32;;;2.28;;
54265;SDS011;40836;39.770;2.714;2022-10-16T05:42:17;6.43;;;2.20;;
54265;SDS011;40836;39.770;2.714;2022-10-16T05:44:43;6.22;;;2.10;;
54265;SDS011;40836;39.770;2.714;2022-10-16T05:47:09;5.72;;;2.17;;
54265;SDS011;40836;39.770;2.714;2022-10-16T05:49:35;5.32;;;2.17;;
54265;SDS011;40836;39.770;2.714;2022-10-16T05:52:01;3.95;;;2.20;;
54265;SDS011;40836;39.770;2.714;2022-10-16T05:54:27;4.70;;;2.28;;
54265;SDS011;40836;39.770;2.714;2022-10-16T05:56:52;5.28;;;2.38;;
54265;SDS011;40836;39.770;2.714;2022-10-16T05:59:18;7.25;;;2.72;;
54265;SDS011;40836;39.770;2.714;2022-10-16T06:01:43;8.48;;;3.75;;
54265;SDS011;40836;39.770;2.714;2022-10-16T06:04:09;14.60;;;3.92;;
54265;SDS011;40836;39.770;2.714;2022-10-16T06:06:34;10.38;;;3.90;;
54265;SDS011;40836;39.770;2.714;2022-10-16T06:09:01;10.90;;;3.30;;
54265;SDS011;40836;39.770;2.714;2022-10-16T06:11:29;13.95;;;3.60;;
54265;SDS011;40836;39.770;2.714;2022-10-16T06:13:57;7.60;;;2.58;;
54265;SDS011;40836;39.770;2.714;2022-10-16T06:16:25;10.98;;;3.70;;
54265;SDS011;40836;39.770;2.714;2022-10-16T06:18:54;11.05;;;3.78;;
54265;SDS011;40836;39.770;2.714;2022-10-16T06:21:27;15.55;;;5.82;;
54265;SDS011;40836;39.770;2.714;2022-10-16T06:23:54;11.30;;;3.58;;
54265;SDS011;40836;39.770;2.714;2022-10-16T06:26:22;11.27;;;3.70;;
54265;SDS011;40836;39.770;2.714;2022-10-16T06:28:49;12.95;;;3.47;;
54265;SDS011;40836;39.770;2.714;2022-10-16T06:31:15;10.40;;;4.18;;
54265;SDS011;40836;39.770;2.714;2022-10-16T06:33:41;11.95;;;2.97;;
54265;SDS011;40836;39.770;2.714;2022-10-16T06:36:11;13.23;;;3.00;;
54265;SDS011;40836;39.770;2.714;2022-10-16T06:38:39;13.23;;;3.80;;
54265;SDS011;40836;39.770;2.714;2022-10-16T06:41:05;33.63;;;16.67;;
54265;SDS011;40836;39.770;2.714;2022-10-16T06:43:32;12.32;;;3.50;;
54265;SDS011;40836;39.770;2.714;2022-10-16T06:46:00;10.63;;;4.05;;
54265;SDS011;40836;39.770;2.714;2022-10-16T06:48:27;12.10;;;3.17;;
54265;SDS011;40836;39.770;2.714;2022-10-16T06:51:03;11.43;;;3.17;;
54265;SDS011;40836;39.770;2.714;2022-10-16T06:53:35;10.68;;;3.13;;
54265;SDS011;40836;39.770;2.714;2022-10-16T06:56:09;26.17;;;8.90;;
54265;SDS011;40836;39.770;2.714;2022-10-16T06:58:37;22.55;;;8.80;;
54265;SDS011;40836;39.770;2.714;2022-10-16T07:01:03;21.88;;;8.05;;
54265;SDS011;40836;39.770;2.714;2022-10-16T07:03:29;17.65;;;7.90;;
54265;SDS011;40836;39.770;2.714;2022-10-16T07:05:55;30.73;;;10.18;;
54265;SDS011;40836;39.770;2.714;2022-10-16T07:08:21;17.88;;;7.53;;
54265;SDS011;40836;39.770;2.714;2022-10-16T07:10:46;24.83;;;13.07;;
54265;SDS011;40836;39.770;2.714;2022-10-16T07:13:12;32.15;;;12.82;;
54265;SDS011;40836;39.770;2.714;2022-10-16T07:15:39;22.88;;;12.18;;
54265;SDS011;40836;39.770;2.714;2022-10-16T07:18:09;26.50;;;11.27;;
54265;SDS011;40836;39.770;2.714;2022-10-16T07:20:35;25.02;;;11.20;;
54265;SDS011;40836;39.770;2.714;2022-10-16T07:23:00;23.13;;;9.57;;
54265;SDS011;40836;39.770;2.714;2022-10-16T07:25:25;21.90;;;11.65;;
54265;SDS011;40836;39.770;2.714;2022-10-16T07:27:51;26.55;;;11.63;;
54265;SDS011;40836;39.770;2.714;2022-10-16T07:30:16;24.17;;;11.85;;
54265;SDS011;40836;39.770;2.714;2022-10-16T07:32:42;20.10;;;9.77;;
54265;SDS011;40836;39.770;2.714;2022-10-16T07:35:07;23.25;;;10.82;;
54265;SDS011;40836;39.770;2.714;2022-10-16T07:37:33;16.80;;;8.88;;
54265;SDS011;40836;39.770;2.714;2022-10-16T07:39:58;18.90;;;7.85;;
54265;SDS011;40836;39.770;2.714;2022-10-16T07:42:24;20.27;;;8.52;;
54265;SDS011;40836;39.770;2.714;2022-10-16T07:44:49;23.25;;;12.25;;
54265;SDS011;40836;39.770;2.714;2022-10-16T07:47:14;24.88;;;13.43;;
54265;SDS011;40836;39.770;2.714;2022-10-16T07:49:40;31.90;;;15.55;;
54265;SDS011;40836;39.770;2.714;2022-10-16T07:52:06;24.40;;;13.90;;
54265;SDS011;40836;39.770;2.714;2022-10-16T07:54:31;32.22;;;14.15;;
54265;SDS011;40836;39.770;2.714;2022-10-16T07:56:56;32.17;;;14.40;;
54265;SDS011;40836;39.770;2.714;2022-10-16T07:59:22;29.73;;;14.18;;
54265;SDS011;40836;39.770;2.714;2022-10-16T08:01:48;25.10;;;12.65;;
54265;SDS011;40836;39.770;2.714;2022-10-16T08:04:14;28.55;;;14.85;;
54265;SDS011;40836;39.770;2.714;2022-10-16T08:06:40;30.63;;;17.77;;
54265;SDS011;40836;39.770;2.714;2022-10-16T08:09:06;33.08;;;17.50;;
54265;SDS011;40836;39.770;2.714;2022-10-16T08:11:32;28.17;;;15.77;;
54265;SDS011;40836;39.770;2.714;2022-10-16T08:13:58;32.17;;;19.00;;
54265;SDS011;40836;39.770;2.714;2022-10-16T08:16:24;36.20;;;23.52;;
54265;SDS011;40836;39.770;2.714;2022-10-16T08:18:49;46.83;;;29.83;;
54265;SDS011;40836;39.770;2.714;2022-10-16T08:21:17;51.53;;;33.03;;
54265;SDS011;40836;39.770;2.714;2022-10-16T08:23:43;54.38;;;33.00;;
54265;SDS011;40836;39.770;2.714;2022-10-16T08:26:09;51.15;;;31.17;;
54265;SDS011;40836;39.770;2.714;2022-10-16T08:28:36;48.53;;;30.10;;
54265;SDS011;40836;39.770;2.714;2022-10-16T08:31:08;46.70;;;27.35;;
54265;SDS011;40836;39.770;2.714;2022-10-16T08:33:36;40.03;;;19.88;;
54265;SDS011;40836;39.770;2.714;2022-10-16T08:36:03;53.72;;;23.40;;
54265;SDS011;40836;39.770;2.714;2022-10-16T08:38:29;67.85;;;30.23;;
54265;SDS011;40836;39.770;2.714;2022-10-16T08:41:19;49.38;;;24.13;;
54265;SDS011;40836;39.770;2.714;2022-10-16T08:49:23;44.10;;;25.27;;
54265;SDS011;40836;39.770;2.714;2022-10-16T08:51:49;42.28;;;22.65;;
54265;SDS011;40836;39.770;2.714;2022-10-16T08:57:09;35.72;;;19.05;;
54265;SDS011;40836;39.770;2.714;2022-10-16T08:59:38;36.22;;;19.67;;
54265;SDS011;40836;39.770;2.714;2022-10-16T09:02:08;34.70;;;20.27;;
54265;SDS011;40836;39.770;2.714;2022-10-16T09:10:48;34.00;;;18.92;;
54265;SDS011;40836;39.770;2.714;2022-10-16T09:19:05;34.17;;;13.70;;
54265;SDS011;40836;39.770;2.714;2022-10-16T09:21:41;31.45;;;18.10;;
54265;SDS011;40836;39.770;2.714;2022-10-16T09:24:13;26.27;;;14.60;;
54265;SDS011;40836;39.770;2.714;2022-10-16T09:26:40;24.42;;;11.80;;
54265;SDS011;40836;39.770;2.714;2022-10-16T09:29:08;22.42;;;11.52;;
54265;SDS011;40836;39.770;2.714;2022-10-16T09:31:36;21.60;;;12.52;;
54265;SDS011;40836;39.770;2.714;2022-10-16T09:34:02;17.02;;;9.98;;
54265;SDS011;40836;39.770;2.714;2022-10-16T09:36:32;17.35;;;9.90;;
54265;SDS011;40836;39.770;2.714;2022-10-16T09:39:07;20.13;;;9.57;;
54265;SDS011;40836;39.770;2.714;2022-10-16T09:41:37;22.73;;;8.70;;
54265;SDS011;40836;39.770;2.714;2022-10-16T09:44:06;26.52;;;8.48;;
54265;SDS011;40836;39.770;2.714;2022-10-16T09:47:00;13.15;;;7.07;;
54265;SDS011;40836;39.770;2.714;2022-10-16T09:49:27;18.80;;;9.45;;
54265;SDS011;40836;39.770;2.714;2022-10-16T09:54:37;14.30;;;7.78;;
54265;SDS011;40836;39.770;2.714;2022-10-16T09:57:14;20.20;;;7.72;;
54265;SDS011;40836;39.770;2.714;2022-10-16T09:59:50;14.93;;;7.32;;
54265;SDS011;40836;39.770;2.714;2022-10-16T10:02:26;15.38;;;6.78;;
54265;SDS011;40836;39.770;2.714;2022-10-16T10:07:42;12.88;;;3.40;;
54265;SDS011;40836;39.770;2.714;2022-10-16T10:10:18;10.68;;;3.58;;
54265;SDS011;40836;39.770;2.714;2022-10-16T10:12:46;9.38;;;3.08;;
54265;SDS011;40836;39.770;2.714;2022-10-16T10:15:12;11.93;;;3.08;;
54265;SDS011;40836;39.770;2.714;2022-10-16T10:17:45;7.50;;;2.80;;
54265;SDS011;40836;39.770;2.714;2022-10-16T10:20:21;13.88;;;2.80;;
54265;SDS011;40836;39.770;2.714;2022-10-16T10:22:47;8.23;;;2.90;;
54265;SDS011;40836;39.770;2.714;2022-10-16T10:30:15;7.75;;;3.13;;
54265;SDS011;40836;39.770;2.714;2022-10-16T10:44:01;8.40;;;2.70;;
54265;SDS011;40836;39.770;2.714;2022-10-16T11:03:42;11.48;;;3.20;;
54265;SDS011;40836;39.770;2.714;2022-10-16T11:06:24;9.07;;;2.72;;
54265;SDS011;40836;39.770;2.714;2022-10-16T11:08:52;8.10;;;3.15;;
54265;SDS011;40836;39.770;2.714;2022-10-16T11:11:25;9.05;;;2.47;;
54265;SDS011;40836;39.770;2.714;2022-10-16T11:16:26;7.35;;;2.70;;
54265;SDS011;40836;39.770;2.714;2022-10-16T11:19:12;11.02;;;2.60;;
54265;SDS011;40836;39.770;2.714;2022-10-16T11:21:58;19.95;;;2.92;;
54265;SDS011;40836;39.770;2.714;2022-10-16T11:24:48;10.52;;;2.50;;
54265;SDS011;40836;39.770;2.714;2022-10-16T11:27:33;5.85;;;2.50;;
54265;SDS011;40836;39.770;2.714;2022-10-16T11:30:03;11.95;;;2.80;;
54265;SDS011;40836;39.770;2.714;2022-10-16T11:40:43;7.32;;;2.63;;
54265;SDS011;40836;39.770;2.714;2022-10-16T11:43:15;6.78;;;2.45;;
54265;SDS011;40836;39.770;2.714;2022-10-16T11:45:51;9.23;;;2.40;;
54265;SDS011;40836;39.770;2.714;2022-10-16T11:51:14;8.05;;;2.40;;
54265;SDS011;40836;39.770;2.714;2022-10-16T11:54:07;10.15;;;2.45;;
54265;SDS011;40836;39.770;2.714;2022-10-16T11:56:43;7.70;;;2.30;;
54265;SDS011;40836;39.770;2.714;2022-10-16T11:59:18;5.35;;;2.30;;
54265;SDS011;40836;39.770;2.714;2022-10-16T12:04:48;7.55;;;2.47;;
54265;SDS011;40836;39.770;2.714;2022-10-16T12:09:53;6.82;;;2.25;;
54265;SDS011;40836;39.770;2.714;2022-10-16T12:15:15;8.27;;;2.60;;
54265;SDS011;40836;39.770;2.714;2022-10-16T12:17:43;7.32;;;2.80;;
54265;SDS011;40836;39.770;2.714;2022-10-16T12:22:37;8.10;;;2.25;;
54265;SDS011;40836;39.770;2.714;2022-10-16T12:25:21;5.45;;;2.50;;
54265;SDS011;40836;39.770;2.714;2022-10-16T12:28:03;9.40;;;2.60;;
54265;SDS011;40836;39.770;2.714;2022-10-16T12:30:42;7.88;;;2.70;;
54265;SDS011;40836;39.770;2.714;2022-10-16T12:33:27;8.52;;;2.40;;
54265;SDS011;40836;39.770;2.714;2022-10-16T12:35:55;5.28;;;2.65;;
54265;SDS011;40836;39.770;2.714;2022-10-16T12:38:27;7.18;;;2.47;;
54265;SDS011;40836;39.770;2.714;2022-10-16T12:40:59;6.95;;;2.70;;
54265;SDS011;40836;39.770;2.714;2022-10-16T12:48:40;7.63;;;2.50;;
54265;SDS011;40836;39.770;2.714;2022-10-16T12:51:12;6.28;;;2.70;;
54265;SDS011;40836;39.770;2.714;2022-10-16T12:54:02;10.20;;;2.58;;
54265;SDS011;40836;39.770;2.714;2022-10-16T13:05:35;6.20;;;2.20;;
54265;SDS011;40836;39.770;2.714;2022-10-16T13:24:48;9.77;;;2.50;;
54265;SDS011;40836;39.770;2.714;2022-10-16T13:30:02;10.05;;;2.63;;
54265;SDS011;40836;39.770;2.714;2022-10-16T13:32:38;10.05;;;2.58;;
54265;SDS011;40836;39.770;2.714;2022-10-16T13:35:17;8.18;;;2.50;;
54265;SDS011;40836;39.770;2.714;2022-10-16T13:37:44;9.85;;;2.50;;
54265;SDS011;40836;39.770;2.714;2022-10-16T13:40:27;5.43;;;2.50;;
54265;SDS011;40836;39.770;2.714;2022-10-16T13:42:53;8.48;;;2.83;;
54265;SDS011;40836;39.770;2.714;2022-10-16T13:45:20;7.63;;;2.47;;
54265;SDS011;40836;39.770;2.714;2022-10-16T13:47:47;6.45;;;2.80;;
54265;SDS011;40836;39.770;2.714;2022-10-16T13:50:14;6.88;;;2.53;;
54265;SDS011;40836;39.770;2.714;2022-10-16T13:52:42;11.27;;;2.70;;
54265;SDS011;40836;39.770;2.714;2022-10-16T13:55:15;7.18;;;2.83;;
54265;SDS011;40836;39.770;2.714;2022-10-16T13:57:42;7.72;;;2.95;;
54265;SDS011;40836;39.770;2.714;2022-10-16T14:00:21;11.05;;;2.88;;
54265;SDS011;40836;39.770;2.714;2022-10-16T14:02:53;12.95;;;2.78;;
54265;SDS011;40836;39.770;2.714;2022-10-16T14:05:23;5.82;;;2.63;;
54265;SDS011;40836;39.770;2.714;2022-10-16T14:07:49;5.28;;;2.60;;
54265;SDS011;40836;39.770;2.714;2022-10-16T14:10:34;6.85;;;2.50;;
54265;SDS011;40836;39.770;2.714;2022-10-16T14:13:01;6.13;;;2.40;;
54265;SDS011;40836;39.770;2.714;2022-10-16T14:15:29;6.13;;;2.50;;
54265;SDS011;40836;39.770;2.714;2022-10-16T14:17:56;9.57;;;2.67;;
54265;SDS011;40836;39.770;2.714;2022-10-16T14:20:24;7.75;;;2.75;;
54265;SDS011;40836;39.770;2.714;2022-10-16T14:25:47;7.25;;;2.85;;
54265;SDS011;40836;39.770;2.714;2022-10-16T14:28:14;6.78;;;2.70;;
54265;SDS011;40836;39.770;2.714;2022-10-16T14:33:50;8.27;;;2.85;;
54265;SDS011;40836;39.770;2.714;2022-10-16T14:36:18;5.68;;;2.97;;
54265;SDS011;40836;39.770;2.714;2022-10-16T14:38:54;8.98;;;3.00;;
54265;SDS011;40836;39.770;2.714;2022-10-16T14:41:24;8.90;;;3.03;;
54265;SDS011;40836;39.770;2.714;2022-10-16T14:43:50;8.27;;;3.20;;
54265;SDS011;40836;39.770;2.714;2022-10-16T14:46:19;6.55;;;2.88;;
54265;SDS011;40836;39.770;2.714;2022-10-16T14:48:51;6.25;;;3.13;;
54265;SDS011;40836;39.770;2.714;2022-10-16T14:51:23;8.77;;;3.20;;
54265;SDS011;40836;39.770;2.714;2022-10-16T14:53:49;8.38;;;3.38;;
54265;SDS011;40836;39.770;2.714;2022-10-16T14:58:45;9.13;;;3.45;;
54265;SDS011;40836;39.770;2.714;2022-10-16T15:01:10;9.18;;;3.10;;
54265;SDS011;40836;39.770;2.714;2022-10-16T15:03:36;8.98;;;3.28;;
54265;SDS011;40836;39.770;2.714;2022-10-16T15:06:03;7.97;;;3.03;;
54265;SDS011;40836;39.770;2.714;2022-10-16T15:08:28;8.40;;;3.35;;
54265;SDS011;40836;39.770;2.714;2022-10-16T15:10:54;6.80;;;3.10;;
54265;SDS011;40836;39.770;2.714;2022-10-16T15:13:19;7.13;;;3.30;;
54265;SDS011;40836;39.770;2.714;2022-10-16T15:15:45;8.43;;;2.80;;
54265;SDS011;40836;39.770;2.714;2022-10-16T15:18:12;5.15;;;2.90;;
54265;SDS011;40836;39.770;2.714;2022-10-16T15:20:40;7.88;;;3.25;;
54265;SDS011;40836;39.770;2.714;2022-10-16T15:23:10;8.50;;;3.00;;
54265;SDS011;40836;39.770;2.714;2022-10-16T15:28:07;8.85;;;3.30;;
54265;SDS011;40836;39.770;2.714;2022-10-16T15:30:34;13.98;;;3.40;;
54265;SDS011;40836;39.770;2.714;2022-10-16T15:33:00;9.10;;;3.13;;
54265;SDS011;40836;39.770;2.714;2022-10-16T15:35:26;6.57;;;3.08;;
54265;SDS011;40836;39.770;2.714;2022-10-16T15:37:51;7.25;;;3.03;;
54265;SDS011;40836;39.770;2.714;2022-10-16T15:40:20;6.72;;;3.17;;
54265;SDS011;40836;39.770;2.714;2022-10-16T15:42:47;7.40;;;2.90;;
54265;SDS011;40836;39.770;2.714;2022-10-16T15:45:14;7.63;;;3.33;;
54265;SDS011;40836;39.770;2.714;2022-10-16T15:47:42;9.63;;;3.10;;
54265;SDS011;40836;39.770;2.714;2022-10-16T15:50:09;8.40;;;3.20;;
54265;SDS011;40836;39.770;2.714;2022-10-16T15:52:36;11.57;;;3.53;;
54265;SDS011;40836;39.770;2.714;2022-10-16T15:55:04;10.18;;;3.13;;
54265;SDS011;40836;39.770;2.714;2022-10-16T15:57:31;7.45;;;3.05;;
54265;SDS011;40836;39.770;2.714;2022-10-16T15:59:57;9.25;;;3.30;;
54265;SDS011;40836;39.770;2.714;2022-10-16T16:02:25;7.78;;;3.30;;
54265;SDS011;40836;39.770;2.714;2022-10-16T16:04:51;7.00;;;3.33;;
54265;SDS011;40836;39.770;2.714;2022-10-16T16:07:19;8.32;;;3.53;;
54265;SDS011;40836;39.770;2.714;2022-10-16T16:09:45;9.32;;;3.63;;
54265;SDS011;40836;39.770;2.714;2022-10-16T16:12:10;9.90;;;3.40;;
54265;SDS011;40836;39.770;2.714;2022-10-16T16:14:36;12.00;;;3.80;;
54265;SDS011;40836;39.770;2.714;2022-10-16T16:17:01;9.15;;;3.65;;
54265;SDS011;40836;39.770;2.714;2022-10-16T16:19:27;12.35;;;3.78;;
54265;SDS011;40836;39.770;2.714;2022-10-16T16:21:52;13.40;;;4.55;;
54265;SDS011;40836;39.770;2.714;2022-10-16T16:24:18;10.93;;;4.00;;
54265;SDS011;40836;39.770;2.714;2022-10-16T16:26:43;7.85;;;3.70;;
54265;SDS011;40836;39.770;2.714;2022-10-16T16:29:12;9.27;;;3.75;;
54265;SDS011;40836;39.770;2.714;2022-10-16T16:31:39;9.63;;;3.38;;
54265;SDS011;40836;39.770;2.714;2022-10-16T16:34:05;9.93;;;4.97;;
54265;SDS011;40836;39.770;2.714;2022-10-16T16:36:31;9.63;;;4.68;;
54265;SDS011;40836;39.770;2.714;2022-10-16T16:38:57;8.98;;;4.25;;
54265;SDS011;40836;39.770;2.714;2022-10-16T16:41:24;10.07;;;4.65;;
54265;SDS011;40836;39.770;2.714;2022-10-16T16:43:54;10.40;;;4.20;;
54265;SDS011;40836;39.770;2.714;2022-10-16T16:46:20;7.22;;;4.10;;
54265;SDS011;40836;39.770;2.714;2022-10-16T16:48:46;12.43;;;4.00;;
54265;SDS011;40836;39.770;2.714;2022-10-16T16:51:16;8.18;;;4.45;;
54265;SDS011;40836;39.770;2.714;2022-10-16T16:53:45;10.07;;;4.60;;
54265;SDS011;40836;39.770;2.714;2022-10-16T16:56:14;10.30;;;4.18;;
54265;SDS011;40836;39.770;2.714;2022-10-16T16:58:39;11.30;;;4.55;;
54265;SDS011;40836;39.770;2.714;2022-10-16T17:01:05;10.07;;;4.20;;
54265;SDS011;40836;39.770;2.714;2022-10-16T17:03:32;16.55;;;4.40;;
54265;SDS011;40836;39.770;2.714;2022-10-16T17:06:00;10.48;;;4.13;;
54265;SDS011;40836;39.770;2.714;2022-10-16T17:08:28;10.90;;;4.43;;
54265;SDS011;40836;39.770;2.714;2022-10-16T17:10:55;9.43;;;4.80;;
54265;SDS011;40836;39.770;2.714;2022-10-16T17:13:25;11.52;;;4.78;;
54265;SDS011;40836;39.770;2.714;2022-10-16T17:15:54;11.35;;;4.60;;
54265;SDS011;40836;39.770;2.714;2022-10-16T17:18:21;11.32;;;4.57;;